Time,TemperatureF,DewpointF,PressureIn,WindDirection,WindDirectionDegrees,WindSpeedMPH,WindSpeedGustMPH,Humidity,HourlyPrecipIn,Conditions,Clouds,dailyrainin,SolarRadiationWatts/m^2,SoftwareType,DateUTC
2013-09-30 00:01:00,45.0,45.0,-100.00,NW,310,6.0,11.0,100,0.13,,,0.83,0.000000,,2013-09-30 07:01:00,
2013-09-30 00:42:00,39.0,39.0,-100.00,NW,317,11.0,23.0,99,0.10,,,0.93,0.000000,,2013-09-30 07:42:00,
2013-09-30 00:53:00,39.0,39.0,-100.00,NW,317,11.0,23.0,99,0.10,,,0.93,0.000000,,2013-09-30 07:53:00,
2013-09-30 01:02:00,39.0,39.0,-100.00,NW,317,11.0,23.0,99,0.10,,,0.93,0.000000,,2013-09-30 08:02:00,
2013-09-30 01:42:00,39.0,39.0,-100.00,WSW,243,9.0,37.0,99,0.00,,,-99.99,0.000000,,2013-09-30 08:42:00,
2013-09-30 01:52:00,39.0,39.0,-100.00,WSW,243,9.0,37.0,99,0.00,,,-99.99,0.000000,,2013-09-30 08:52:00,
2013-09-30 02:02:00,39.0,39.0,-100.00,WSW,243,9.0,37.0,99,0.00,,,-99.99,0.000000,,2013-09-30 09:02:00,
2013-09-30 02:42:00,38.0,38.0,-100.00,SSE,156,9.0,29.0,100,0.02,,,0.94,0.000000,,2013-09-30 09:42:00,
2013-09-30 02:53:00,38.0,38.0,-100.00,SSE,156,9.0,29.0,100,0.02,,,0.94,0.000000,,2013-09-30 09:53:00,
2013-09-30 03:03:00,38.0,38.0,-100.00,SSE,156,9.0,29.0,100,0.02,,,0.94,0.000000,,2013-09-30 10:03:00,
2013-09-30 03:43:00,39.0,37.0,-100.00,SSE,153,7.0,24.0,94,0.00,,,0.94,0.000000,,2013-09-30 10:43:00,
2013-09-30 03:53:00,39.0,37.0,-100.00,SSE,153,7.0,24.0,94,0.00,,,0.94,0.000000,,2013-09-30 10:53:00,
2013-09-30 04:02:00,39.0,37.0,-100.00,SSE,153,7.0,24.0,94,0.00,,,0.94,0.000000,,2013-09-30 11:02:00,
2013-09-30 04:43:00,40.0,37.0,-100.00,NE,48,9.0,24.0,89,0.00,,,0.94,0.000000,,2013-09-30 11:43:00,
2013-09-30 04:52:00,40.0,37.0,-100.00,NE,48,9.0,24.0,89,0.00,,,0.94,0.000000,,2013-09-30 11:52:00,
2013-09-30 05:02:00,40.0,37.0,-100.00,NE,48,9.0,24.0,89,0.00,,,0.94,0.000000,,2013-09-30 12:02:00,
2013-09-30 05:42:00,40.0,39.0,-100.00,NE,56,9.0,22.0,95,0.00,,,0.94,0.000000,,2013-09-30 12:42:00,
2013-09-30 05:52:00,40.0,39.0,-100.00,NE,56,9.0,22.0,95,0.00,,,0.94,0.000000,,2013-09-30 12:52:00,
2013-09-30 06:01:00,40.0,39.0,-100.00,NE,56,9.0,22.0,95,0.00,,,0.94,0.000000,,2013-09-30 13:01:00,
2013-09-30 06:42:00,41.0,38.0,-100.00,North,350,11.0,21.0,89,0.00,,,0.94,0.000000,,2013-09-30 13:42:00,
2013-09-30 06:52:00,41.0,38.0,-100.00,North,350,11.0,21.0,89,0.00,,,0.94,0.000000,,2013-09-30 13:52:00,
2013-09-30 07:01:00,41.0,38.0,-100.00,North,350,11.0,21.0,89,0.00,,,0.94,0.000000,,2013-09-30 14:01:00,
2013-09-30 07:42:00,39.0,38.0,-100.00,NE,41,7.0,29.0,98,0.01,,,0.94,22.000000,,2013-09-30 14:42:00,
2013-09-30 07:52:00,39.0,38.0,-100.00,NE,41,7.0,29.0,98,0.01,,,0.94,22.000000,,2013-09-30 14:52:00,
2013-09-30 08:02:00,39.0,38.0,-100.00,NE,41,7.0,29.0,98,0.01,,,0.94,22.000000,,2013-09-30 15:02:00,
2013-09-30 08:45:00,40.0,40.0,-100.00,NE,41,7.0,24.0,100,0.14,,,1.06,44.000000,,2013-09-30 15:45:00,
2013-09-30 08:54:00,40.0,40.0,-100.00,NE,41,7.0,24.0,100,0.14,,,1.06,44.000000,,2013-09-30 15:54:00,
2013-09-30 09:04:00,40.0,40.0,-100.00,NE,41,7.0,24.0,100,0.14,,,1.06,44.000000,,2013-09-30 16:04:00,
2013-09-30 09:44:00,43.0,43.0,-100.00,NE,46,5.0,20.0,99,0.03,,,1.07,433.000000,,2013-09-30 16:44:00,
2013-09-30 09:53:00,43.0,43.0,-100.00,NE,46,5.0,20.0,99,0.03,,,1.07,433.000000,,2013-09-30 16:53:00,
2013-09-30 10:03:00,43.0,43.0,-100.00,NE,46,5.0,20.0,99,0.03,,,1.07,433.000000,,2013-09-30 17:03:00,
2013-09-30 10:43:00,40.0,40.0,-100.00,NE,43,4.0,16.0,100,0.17,,,1.23,50.000000,,2013-09-30 17:43:00,
2013-09-30 10:53:00,40.0,40.0,-100.00,NE,43,4.0,16.0,100,0.17,,,1.23,50.000000,,2013-09-30 17:53:00,
2013-09-30 11:01:00,40.0,40.0,-100.00,NE,43,4.0,16.0,100,0.17,,,1.23,50.000000,,2013-09-30 18:01:00,
2013-09-30 11:42:00,48.0,48.0,-100.00,WNW,299,3.0,22.0,99,0.02,,,1.22,756.000000,,2013-09-30 18:42:00,
2013-09-30 11:53:00,48.0,48.0,-100.00,WNW,299,3.0,22.0,99,0.02,,,1.22,756.000000,,2013-09-30 18:53:00,
2013-09-30 12:02:00,48.0,48.0,-100.00,WNW,299,3.0,22.0,99,0.02,,,1.22,756.000000,,2013-09-30 19:02:00,
2013-09-30 12:42:00,48.0,45.0,-100.00,NE,46,5.0,16.0,89,0.00,,,1.21,394.000000,,2013-09-30 19:42:00,
2013-09-30 12:53:00,48.0,45.0,-100.00,NE,46,5.0,16.0,89,0.00,,,1.21,394.000000,,2013-09-30 19:53:00,
2013-09-30 13:02:00,48.0,45.0,-100.00,NE,46,5.0,16.0,89,0.00,,,1.21,394.000000,,2013-09-30 20:02:00,
2013-09-30 13:43:00,47.0,44.0,-100.00,NNW,328,7.0,12.0,90,0.01,,,1.20,294.000000,,2013-09-30 20:43:00,
2013-09-30 13:53:00,47.0,44.0,-100.00,NNW,328,7.0,12.0,90,0.01,,,1.20,294.000000,,2013-09-30 20:53:00,
2013-09-30 14:02:00,47.0,44.0,-100.00,NNW,328,7.0,12.0,90,0.01,,,1.20,294.000000,,2013-09-30 21:02:00,
2013-09-30 14:44:00,46.0,42.0,-100.00,ENE,65,8.0,15.0,86,0.01,,,1.20,747.000000,,2013-09-30 21:44:00,
2013-09-30 14:54:00,46.0,42.0,-100.00,ENE,65,8.0,15.0,86,0.01,,,1.20,747.000000,,2013-09-30 21:54:00,
2013-09-30 15:03:00,46.0,42.0,-100.00,ENE,65,8.0,15.0,86,0.01,,,1.20,747.000000,,2013-09-30 22:03:00,
2013-09-30 15:44:00,49.0,42.0,-100.00,NE,48,7.0,21.0,76,0.00,,,1.16,708.000000,,2013-09-30 22:44:00,
2013-09-30 15:54:00,49.0,42.0,-100.00,NE,48,7.0,21.0,76,0.00,,,1.16,708.000000,,2013-09-30 22:54:00,
2013-09-30 16:03:00,49.0,42.0,-100.00,NE,48,7.0,21.0,76,0.00,,,1.16,708.000000,,2013-09-30 23:03:00,
2013-09-30 16:43:00,44.0,39.0,-100.00,ENE,59,6.0,17.0,84,0.00,,,1.09,86.000000,,2013-09-30 23:43:00,
2013-09-30 16:54:00,44.0,39.0,-100.00,ENE,59,6.0,17.0,84,0.00,,,1.09,86.000000,,2013-09-30 23:54:00,
2013-09-30 17:02:00,44.0,39.0,-100.00,ENE,59,6.0,17.0,84,0.00,,,1.09,86.000000,,2013-10-01 00:02:00,
2013-09-30 17:43:00,42.0,38.0,-100.00,NE,36,8.0,14.0,86,0.00,,,1.00,39.000000,,2013-10-01 00:43:00,
2013-09-30 17:52:00,42.0,38.0,-100.00,NE,36,8.0,14.0,86,0.00,,,1.00,39.000000,,2013-10-01 00:52:00,
2013-09-30 18:02:00,42.0,38.0,-100.00,NE,36,8.0,14.0,86,0.00,,,1.00,39.000000,,2013-10-01 01:02:00,
2013-09-30 18:42:00,42.0,41.0,-100.00,SSE,158,7.0,25.0,96,0.00,,,0.95,14.000000,,2013-10-01 01:42:00,
2013-09-30 18:52:00,42.0,41.0,-100.00,SSE,158,7.0,25.0,96,0.00,,,0.95,14.000000,,2013-10-01 01:52:00,
2013-09-30 19:02:00,42.0,41.0,-100.00,SSE,158,7.0,25.0,96,0.00,,,0.95,14.000000,,2013-10-01 02:02:00,
2013-09-30 19:43:00,40.0,36.0,-100.00,ENE,71,8.0,21.0,85,0.00,,,0.91,0.000000,,2013-10-01 02:43:00,
2013-09-30 19:52:00,40.0,36.0,-100.00,ENE,71,8.0,21.0,85,0.00,,,0.91,0.000000,,2013-10-01 02:52:00,
2013-09-30 20:02:00,40.0,36.0,-100.00,ENE,71,8.0,21.0,85,0.00,,,0.91,0.000000,,2013-10-01 03:02:00,
2013-09-30 20:44:00,39.0,38.0,-100.00,NE,53,2.0,20.0,96,0.00,,,0.85,0.000000,,2013-10-01 03:44:00,
2013-09-30 20:55:00,39.0,38.0,-100.00,NE,53,2.0,20.0,96,0.00,,,0.85,0.000000,,2013-10-01 03:55:00,
2013-09-30 21:04:00,39.0,38.0,-100.00,NE,53,2.0,20.0,96,0.00,,,0.85,0.000000,,2013-10-01 04:04:00,